sensor_id;sensor_type;location;lat;lon;timestamp;P1;durP1;ratioP1;P2;durP2;ratioP2
26908;SDS011;14477;51.038;4.588;2022-08-01T00:02:13;1.48;;;0.98;;
26908;SDS011;14477;51.038;4.588;2022-08-01T00:04:39;1.75;;;1.17;;
26908;SDS011;14477;51.038;4.588;2022-08-01T00:07:05;1.93;;;1.10;;
26908;SDS011;14477;51.038;4.588;2022-08-01T00:09:30;1.67;;;0.97;;
26908;SDS011;14477;51.038;4.588;2022-08-01T00:11:56;1.95;;;1.10;;
26908;SDS011;14477;51.038;4.588;2022-08-01T00:14:23;2.90;;;1.10;;
26908;SDS011;14477;51.038;4.588;2022-08-01T00:16:49;2.77;;;1.13;;
26908;SDS011;14477;51.038;4.588;2022-08-01T00:19:14;1.95;;;1.10;;
26908;SDS011;14477;51.038;4.588;2022-08-01T00:21:40;1.98;;;1.27;;
26908;SDS011;14477;51.038;4.588;2022-08-01T00:24:06;2.13;;;1.20;;
26908;SDS011;14477;51.038;4.588;2022-08-01T00:26:32;3.70;;;1.20;;
26908;SDS011;14477;51.038;4.588;2022-08-01T00:28:58;1.58;;;1.17;;
26908;SDS011;14477;51.038;4.588;2022-08-01T00:31:23;1.60;;;1.27;;
26908;SDS011;14477;51.038;4.588;2022-08-01T00:33:49;1.60;;;1.17;;
26908;SDS011;14477;51.038;4.588;2022-08-01T00:36:15;1.90;;;1.10;;
26908;SDS011;14477;51.038;4.588;2022-08-01T00:38:40;4.30;;;1.33;;
26908;SDS011;14477;51.038;4.588;2022-08-01T00:41:06;2.45;;;1.38;;
26908;SDS011;14477;51.038;4.588;2022-08-01T00:43:32;2.70;;;1.40;;
26908;SDS011;14477;51.038;4.588;2022-08-01T00:45:57;2.28;;;1.20;;
26908;SDS011;14477;51.038;4.588;2022-08-01T00:48:23;1.80;;;1.13;;
26908;SDS011;14477;51.038;4.588;2022-08-01T00:50:49;2.20;;;1.40;;
26908;SDS011;14477;51.038;4.588;2022-08-01T00:53:15;3.17;;;1.40;;
26908;SDS011;14477;51.038;4.588;2022-08-01T00:55:41;1.73;;;1.13;;
26908;SDS011;14477;51.038;4.588;2022-08-01T00:58:08;2.22;;;1.40;;
26908;SDS011;14477;51.038;4.588;2022-08-01T01:00:34;2.57;;;1.43;;
26908;SDS011;14477;51.038;4.588;2022-08-01T01:03:00;2.03;;;1.50;;
26908;SDS011;14477;51.038;4.588;2022-08-01T01:05:27;1.60;;;1.30;;
26908;SDS011;14477;51.038;4.588;2022-08-01T01:08:03;2.33;;;1.50;;
26908;SDS011;14477;51.038;4.588;2022-08-01T01:16:08;2.30;;;1.42;;
26908;SDS011;14477;51.038;4.588;2022-08-01T01:18:54;2.25;;;1.50;;
26908;SDS011;14477;51.038;4.588;2022-08-01T01:29:11;2.55;;;1.58;;
26908;SDS011;14477;51.038;4.588;2022-08-01T01:31:49;1.50;;;1.37;;
26908;SDS011;14477;51.038;4.588;2022-08-01T01:34:32;2.38;;;1.30;;
26908;SDS011;14477;51.038;4.588;2022-08-01T01:37:01;1.83;;;1.42;;
26908;SDS011;14477;51.038;4.588;2022-08-01T01:39:29;2.88;;;1.75;;
26908;SDS011;14477;51.038;4.588;2022-08-01T01:41:57;2.17;;;1.63;;
26908;SDS011;14477;51.038;4.588;2022-08-01T01:44:25;2.20;;;1.50;;
26908;SDS011;14477;51.038;4.588;2022-08-01T01:46:52;3.28;;;1.77;;
26908;SDS011;14477;51.038;4.588;2022-08-01T01:49:23;2.33;;;1.60;;
26908;SDS011;14477;51.038;4.588;2022-08-01T01:51:53;4.47;;;1.80;;
26908;SDS011;14477;51.038;4.588;2022-08-01T01:54:21;3.35;;;1.83;;
26908;SDS011;14477;51.038;4.588;2022-08-01T01:56:49;4.17;;;1.93;;
26908;SDS011;14477;51.038;4.588;2022-08-01T01:59:20;3.83;;;2.00;;
26908;SDS011;14477;51.038;4.588;2022-08-01T02:01:49;3.38;;;2.13;;
26908;SDS011;14477;51.038;4.588;2022-08-01T02:04:17;3.22;;;2.15;;
26908;SDS011;14477;51.038;4.588;2022-08-01T02:06:45;3.67;;;2.28;;
26908;SDS011;14477;51.038;4.588;2022-08-01T02:09:14;3.50;;;2.00;;
26908;SDS011;14477;51.038;4.588;2022-08-01T02:11:44;3.08;;;2.00;;
26908;SDS011;14477;51.038;4.588;2022-08-01T02:14:12;5.25;;;2.40;;
26908;SDS011;14477;51.038;4.588;2022-08-01T02:16:39;3.63;;;2.20;;
26908;SDS011;14477;51.038;4.588;2022-08-01T02:19:07;3.20;;;2.00;;
26908;SDS011;14477;51.038;4.588;2022-08-01T02:21:47;3.67;;;2.03;;
26908;SDS011;14477;51.038;4.588;2022-08-01T02:24:17;3.72;;;2.20;;
26908;SDS011;14477;51.038;4.588;2022-08-01T02:26:49;4.75;;;2.40;;
26908;SDS011;14477;51.038;4.588;2022-08-01T02:29:21;4.47;;;2.50;;
26908;SDS011;14477;51.038;4.588;2022-08-01T02:32:02;3.90;;;2.38;;
26908;SDS011;14477;51.038;4.588;2022-08-01T02:34:31;4.30;;;2.60;;
26908;SDS011;14477;51.038;4.588;2022-08-01T02:37:00;5.72;;;2.45;;
26908;SDS011;14477;51.038;4.588;2022-08-01T02:39:28;4.47;;;2.47;;
26908;SDS011;14477;51.038;4.588;2022-08-01T02:41:57;3.20;;;2.50;;
26908;SDS011;14477;51.038;4.588;2022-08-01T02:44:30;4.15;;;2.72;;
26908;SDS011;14477;51.038;4.588;2022-08-01T02:47:00;4.43;;;2.60;;
26908;SDS011;14477;51.038;4.588;2022-08-01T02:49:29;4.97;;;2.78;;
26908;SDS011;14477;51.038;4.588;2022-08-01T02:52:04;5.07;;;2.63;;
26908;SDS011;14477;51.038;4.588;2022-08-01T02:54:33;5.43;;;3.10;;
26908;SDS011;14477;51.038;4.588;2022-08-01T02:57:00;5.22;;;3.05;;
26908;SDS011;14477;51.038;4.588;2022-08-01T02:59:29;6.03;;;3.30;;
26908;SDS011;14477;51.038;4.588;2022-08-01T03:01:57;6.90;;;3.75;;
26908;SDS011;14477;51.038;4.588;2022-08-01T03:04:25;7.65;;;4.05;;
26908;SDS011;14477;51.038;4.588;2022-08-01T03:06:53;8.98;;;4.45;;
26908;SDS011;14477;51.038;4.588;2022-08-01T03:09:20;7.88;;;4.25;;
26908;SDS011;14477;51.038;4.588;2022-08-01T03:11:47;9.20;;;4.30;;
26908;SDS011;14477;51.038;4.588;2022-08-01T03:14:14;8.63;;;4.35;;
26908;SDS011;14477;51.038;4.588;2022-08-01T03:16:41;10.32;;;4.60;;
26908;SDS011;14477;51.038;4.588;2022-08-01T03:19:08;8.38;;;4.47;;
26908;SDS011;14477;51.038;4.588;2022-08-01T03:21:36;8.48;;;4.30;;
26908;SDS011;14477;51.038;4.588;2022-08-01T03:24:04;7.47;;;4.27;;
26908;SDS011;14477;51.038;4.588;2022-08-01T03:26:32;9.55;;;4.63;;
26908;SDS011;14477;51.038;4.588;2022-08-01T03:29:04;8.52;;;4.43;;
26908;SDS011;14477;51.038;4.588;2022-08-01T03:31:35;7.40;;;4.28;;
26908;SDS011;14477;51.038;4.588;2022-08-01T03:34:03;7.60;;;4.32;;
26908;SDS011;14477;51.038;4.588;2022-08-01T03:36:30;7.43;;;4.00;;
26908;SDS011;14477;51.038;4.588;2022-08-01T03:38:59;5.68;;;3.65;;
26908;SDS011;14477;51.038;4.588;2022-08-01T03:41:29;6.00;;;3.50;;
26908;SDS011;14477;51.038;4.588;2022-08-01T03:44:01;7.55;;;3.38;;
26908;SDS011;14477;51.038;4.588;2022-08-01T03:46:34;4.88;;;3.20;;
26908;SDS011;14477;51.038;4.588;2022-08-01T03:49:14;4.83;;;2.70;;
26908;SDS011;14477;51.038;4.588;2022-08-01T03:51:44;7.63;;;3.17;;
26908;SDS011;14477;51.038;4.588;2022-08-01T03:54:14;5.78;;;2.85;;
26908;SDS011;14477;51.038;4.588;2022-08-01T03:56:45;5.10;;;2.83;;
26908;SDS011;14477;51.038;4.588;2022-08-01T03:59:12;5.22;;;3.00;;
26908;SDS011;14477;51.038;4.588;2022-08-01T04:01:41;6.63;;;2.83;;
26908;SDS011;14477;51.038;4.588;2022-08-01T04:04:08;4.75;;;2.78;;
26908;SDS011;14477;51.038;4.588;2022-08-01T04:06:37;4.53;;;2.78;;
26908;SDS011;14477;51.038;4.588;2022-08-01T04:09:07;5.07;;;2.75;;
26908;SDS011;14477;51.038;4.588;2022-08-01T04:11:33;5.80;;;3.08;;
26908;SDS011;14477;51.038;4.588;2022-08-01T04:13:58;4.60;;;2.67;;
26908;SDS011;14477;51.038;4.588;2022-08-01T04:16:24;4.28;;;2.72;;
26908;SDS011;14477;51.038;4.588;2022-08-01T04:18:50;4.78;;;2.70;;
26908;SDS011;14477;51.038;4.588;2022-08-01T04:21:18;5.03;;;2.43;;
26908;SDS011;14477;51.038;4.588;2022-08-01T04:23:47;4.53;;;2.35;;
26908;SDS011;14477;51.038;4.588;2022-08-01T04:26:16;4.30;;;2.13;;
26908;SDS011;14477;51.038;4.588;2022-08-01T04:28:44;5.70;;;2.50;;
26908;SDS011;14477;51.038;4.588;2022-08-01T04:31:12;5.40;;;2.80;;
26908;SDS011;14477;51.038;4.588;2022-08-01T04:33:43;4.07;;;2.40;;
26908;SDS011;14477;51.038;4.588;2022-08-01T04:36:14;4.63;;;2.10;;
26908;SDS011;14477;51.038;4.588;2022-08-01T04:38:45;4.93;;;2.28;;
26908;SDS011;14477;51.038;4.588;2022-08-01T04:41:12;4.82;;;2.45;;
26908;SDS011;14477;51.038;4.588;2022-08-01T04:43:38;4.72;;;2.30;;
26908;SDS011;14477;51.038;4.588;2022-08-01T04:46:05;4.53;;;2.23;;
26908;SDS011;14477;51.038;4.588;2022-08-01T04:48:33;3.67;;;2.13;;
26908;SDS011;14477;51.038;4.588;2022-08-01T04:51:02;4.05;;;2.00;;
26908;SDS011;14477;51.038;4.588;2022-08-01T04:53:28;4.38;;;2.05;;
26908;SDS011;14477;51.038;4.588;2022-08-01T04:55:57;2.78;;;1.77;;
26908;SDS011;14477;51.038;4.588;2022-08-01T04:58:23;3.30;;;1.87;;
26908;SDS011;14477;51.038;4.588;2022-08-01T05:00:49;4.50;;;1.90;;
26908;SDS011;14477;51.038;4.588;2022-08-01T05:03:15;4.40;;;2.00;;
26908;SDS011;14477;51.038;4.588;2022-08-01T05:05:41;3.03;;;1.50;;
26908;SDS011;14477;51.038;4.588;2022-08-01T05:08:07;2.80;;;1.58;;
26908;SDS011;14477;51.038;4.588;2022-08-01T05:10:33;3.90;;;1.75;;
26908;SDS011;14477;51.038;4.588;2022-08-01T05:13:05;3.03;;;1.50;;
26908;SDS011;14477;51.038;4.588;2022-08-01T05:15:31;2.80;;;1.60;;
26908;SDS011;14477;51.038;4.588;2022-08-01T05:17:57;2.47;;;1.60;;
26908;SDS011;14477;51.038;4.588;2022-08-01T05:20:23;4.25;;;1.80;;
26908;SDS011;14477;51.038;4.588;2022-08-01T05:22:49;3.63;;;1.50;;
26908;SDS011;14477;51.038;4.588;2022-08-01T05:25:14;1.90;;;1.37;;
26908;SDS011;14477;51.038;4.588;2022-08-01T05:27:40;3.03;;;1.60;;
26908;SDS011;14477;51.038;4.588;2022-08-01T05:30:07;3.38;;;1.55;;
26908;SDS011;14477;51.038;4.588;2022-08-01T05:32:33;2.20;;;1.45;;
26908;SDS011;14477;51.038;4.588;2022-08-01T05:34:59;2.53;;;1.40;;
26908;SDS011;14477;51.038;4.588;2022-08-01T05:37:25;2.63;;;1.27;;
26908;SDS011;14477;51.038;4.588;2022-08-01T05:39:51;2.57;;;1.30;;
26908;SDS011;14477;51.038;4.588;2022-08-01T05:42:17;1.63;;;1.23;;
26908;SDS011;14477;51.038;4.588;2022-08-01T05:44:43;2.90;;;1.42;;
26908;SDS011;14477;51.038;4.588;2022-08-01T05:47:09;1.70;;;1.30;;
26908;SDS011;14477;51.038;4.588;2022-08-01T05:49:34;2.90;;;1.23;;
26908;SDS011;14477;51.038;4.588;2022-08-01T05:52:00;2.47;;;1.30;;
26908;SDS011;14477;51.038;4.588;2022-08-01T05:54:26;2.33;;;1.30;;
26908;SDS011;14477;51.038;4.588;2022-08-01T05:56:52;2.50;;;1.50;;
26908;SDS011;14477;51.038;4.588;2022-08-01T05:59:20;3.25;;;1.63;;
26908;SDS011;14477;51.038;4.588;2022-08-01T06:01:45;2.10;;;1.40;;
26908;SDS011;14477;51.038;4.588;2022-08-01T06:04:11;2.10;;;1.48;;
26908;SDS011;14477;51.038;4.588;2022-08-01T06:06:37;3.23;;;1.67;;
26908;SDS011;14477;51.038;4.588;2022-08-01T06:09:02;3.00;;;1.50;;
26908;SDS011;14477;51.038;4.588;2022-08-01T06:11:28;2.10;;;1.50;;
26908;SDS011;14477;51.038;4.588;2022-08-01T06:13:54;2.83;;;1.57;;
26908;SDS011;14477;51.038;4.588;2022-08-01T06:16:20;2.00;;;1.40;;
26908;SDS011;14477;51.038;4.588;2022-08-01T06:18:45;2.58;;;1.58;;
26908;SDS011;14477;51.038;4.588;2022-08-01T06:21:11;2.88;;;1.85;;
26908;SDS011;14477;51.038;4.588;2022-08-01T06:23:37;2.87;;;1.70;;
26908;SDS011;14477;51.038;4.588;2022-08-01T06:26:03;2.70;;;1.83;;
26908;SDS011;14477;51.038;4.588;2022-08-01T06:28:28;3.27;;;1.50;;
26908;SDS011;14477;51.038;4.588;2022-08-01T06:30:54;3.35;;;1.60;;
26908;SDS011;14477;51.038;4.588;2022-08-01T06:33:20;3.45;;;1.80;;
26908;SDS011;14477;51.038;4.588;2022-08-01T06:35:46;2.47;;;1.53;;
26908;SDS011;14477;51.038;4.588;2022-08-01T06:38:12;2.15;;;1.52;;
26908;SDS011;14477;51.038;4.588;2022-08-01T06:40:38;2.63;;;1.58;;
26908;SDS011;14477;51.038;4.588;2022-08-01T06:43:04;2.97;;;1.60;;
26908;SDS011;14477;51.038;4.588;2022-08-01T06:45:29;2.55;;;1.63;;
26908;SDS011;14477;51.038;4.588;2022-08-01T06:47:55;2.27;;;1.40;;
26908;SDS011;14477;51.038;4.588;2022-08-01T06:50:21;1.98;;;1.40;;
26908;SDS011;14477;51.038;4.588;2022-08-01T06:52:46;1.93;;;1.40;;
26908;SDS011;14477;51.038;4.588;2022-08-01T06:55:12;2.53;;;1.40;;
26908;SDS011;14477;51.038;4.588;2022-08-01T06:57:49;1.42;;;1.20;;
26908;SDS011;14477;51.038;4.588;2022-08-01T07:00:17;1.90;;;1.20;;
26908;SDS011;14477;51.038;4.588;2022-08-01T07:02:47;2.35;;;1.45;;
26908;SDS011;14477;51.038;4.588;2022-08-01T07:05:17;1.38;;;1.02;;
26908;SDS011;14477;51.038;4.588;2022-08-01T07:07:42;1.67;;;1.13;;
26908;SDS011;14477;51.038;4.588;2022-08-01T07:10:09;2.13;;;1.20;;
26908;SDS011;14477;51.038;4.588;2022-08-01T07:12:35;1.40;;;1.20;;
26908;SDS011;14477;51.038;4.588;2022-08-01T07:15:06;1.95;;;1.20;;
26908;SDS011;14477;51.038;4.588;2022-08-01T07:17:36;1.40;;;1.10;;
26908;SDS011;14477;51.038;4.588;2022-08-01T07:20:06;1.60;;;1.25;;
26908;SDS011;14477;51.038;4.588;2022-08-01T07:22:33;1.27;;;1.17;;
26908;SDS011;14477;51.038;4.588;2022-08-01T07:24:59;1.13;;;1.02;;
26908;SDS011;14477;51.038;4.588;2022-08-01T07:27:25;1.77;;;1.10;;
26908;SDS011;14477;51.038;4.588;2022-08-01T07:29:50;1.05;;;0.95;;
26908;SDS011;14477;51.038;4.588;2022-08-01T07:32:16;1.57;;;1.00;;
26908;SDS011;14477;51.038;4.588;2022-08-01T07:34:42;2.15;;;0.95;;
26908;SDS011;14477;51.038;4.588;2022-08-01T07:37:07;1.90;;;1.03;;
26908;SDS011;14477;51.038;4.588;2022-08-01T07:39:33;1.10;;;1.00;;
26908;SDS011;14477;51.038;4.588;2022-08-01T07:41:58;1.10;;;1.00;;
26908;SDS011;14477;51.038;4.588;2022-08-01T07:44:24;0.97;;;0.90;;
26908;SDS011;14477;51.038;4.588;2022-08-01T07:46:50;1.55;;;1.00;;
26908;SDS011;14477;51.038;4.588;2022-08-01T07:49:16;1.10;;;0.90;;
26908;SDS011;14477;51.038;4.588;2022-08-01T07:51:41;1.48;;;0.80;;
26908;SDS011;14477;51.038;4.588;2022-08-01T07:54:07;1.50;;;0.87;;
26908;SDS011;14477;51.038;4.588;2022-08-01T07:56:33;1.15;;;0.88;;
26908;SDS011;14477;51.038;4.588;2022-08-01T07:58:59;1.10;;;1.00;;
26908;SDS011;14477;51.038;4.588;2022-08-01T08:01:24;0.90;;;0.90;;
26908;SDS011;14477;51.038;4.588;2022-08-01T08:03:50;1.75;;;0.90;;
26908;SDS011;14477;51.038;4.588;2022-08-01T08:06:16;0.90;;;0.90;;
26908;SDS011;14477;51.038;4.588;2022-08-01T08:08:41;1.00;;;0.90;;
26908;SDS011;14477;51.038;4.588;2022-08-01T08:11:07;1.80;;;0.95;;
26908;SDS011;14477;51.038;4.588;2022-08-01T08:13:33;1.83;;;1.10;;
26908;SDS011;14477;51.038;4.588;2022-08-01T08:15:59;2.83;;;1.17;;
26908;SDS011;14477;51.038;4.588;2022-08-01T08:18:25;2.10;;;1.13;;
26908;SDS011;14477;51.038;4.588;2022-08-01T08:20:51;1.95;;;1.30;;
26908;SDS011;14477;51.038;4.588;2022-08-01T08:23:16;1.50;;;1.27;;
26908;SDS011;14477;51.038;4.588;2022-08-01T08:26:00;1.38;;;1.27;;
26908;SDS011;14477;51.038;4.588;2022-08-01T08:28:27;2.37;;;1.50;;
26908;SDS011;14477;51.038;4.588;2022-08-01T08:30:56;1.55;;;1.40;;
26908;SDS011;14477;51.038;4.588;2022-08-01T08:33:21;1.38;;;1.27;;
26908;SDS011;14477;51.038;4.588;2022-08-01T08:35:47;1.47;;;1.30;;
26908;SDS011;14477;51.038;4.588;2022-08-01T08:38:12;1.40;;;1.30;;
26908;SDS011;14477;51.038;4.588;2022-08-01T08:40:38;1.20;;;1.10;;
26908;SDS011;14477;51.038;4.588;2022-08-01T08:43:04;1.30;;;1.20;;
26908;SDS011;14477;51.038;4.588;2022-08-01T08:45:31;1.00;;;1.00;;
26908;SDS011;14477;51.038;4.588;2022-08-01T08:47:57;1.40;;;0.97;;
26908;SDS011;14477;51.038;4.588;2022-08-01T08:50:24;0.88;;;0.85;;
26908;SDS011;14477;51.038;4.588;2022-08-01T08:52:52;0.90;;;0.90;;
26908;SDS011;14477;51.038;4.588;2022-08-01T08:55:20;1.45;;;1.00;;
26908;SDS011;14477;51.038;4.588;2022-08-01T08:57:47;1.10;;;1.00;;
26908;SDS011;14477;51.038;4.588;2022-08-01T09:00:13;1.37;;;0.90;;
26908;SDS011;14477;51.038;4.588;2022-08-01T09:02:40;0.80;;;0.80;;
26908;SDS011;14477;51.038;4.588;2022-08-01T09:05:11;1.48;;;0.90;;
26908;SDS011;14477;51.038;4.588;2022-08-01T09:07:38;0.80;;;0.80;;
26908;SDS011;14477;51.038;4.588;2022-08-01T09:10:04;1.00;;;0.90;;
26908;SDS011;14477;51.038;4.588;2022-08-01T09:12:32;1.57;;;1.00;;
26908;SDS011;14477;51.038;4.588;2022-08-01T09:14:58;1.10;;;0.90;;
26908;SDS011;14477;51.038;4.588;2022-08-01T09:17:23;1.13;;;1.00;;
26908;SDS011;14477;51.038;4.588;2022-08-01T09:19:53;1.00;;;1.00;;
26908;SDS011;14477;51.038;4.588;2022-08-01T09:22:22;1.17;;;1.08;;
26908;SDS011;14477;51.038;4.588;2022-08-01T09:27:27;1.10;;;1.00;;
26908;SDS011;14477;51.038;4.588;2022-08-01T09:29:53;1.00;;;0.90;;
26908;SDS011;14477;51.038;4.588;2022-08-01T09:32:19;0.90;;;0.90;;
26908;SDS011;14477;51.038;4.588;2022-08-01T09:34:45;1.30;;;1.10;;
26908;SDS011;14477;51.038;4.588;2022-08-01T09:37:11;1.43;;;1.10;;
26908;SDS011;14477;51.038;4.588;2022-08-01T09:39:42;1.50;;;1.20;;
26908;SDS011;14477;51.038;4.588;2022-08-01T09:42:23;1.48;;;0.93;;
26908;SDS011;14477;51.038;4.588;2022-08-01T09:44:51;1.10;;;1.00;;
26908;SDS011;14477;51.038;4.588;2022-08-01T09:47:18;1.50;;;1.10;;
26908;SDS011;14477;51.038;4.588;2022-08-01T09:49:55;1.25;;;1.13;;
26908;SDS011;14477;51.038;4.588;2022-08-01T09:52:22;1.55;;;1.10;;
26908;SDS011;14477;51.038;4.588;2022-08-01T09:57:20;1.40;;;1.30;;
26908;SDS011;14477;51.038;4.588;2022-08-01T09:59:48;1.50;;;1.40;;
26908;SDS011;14477;51.038;4.588;2022-08-01T10:05:05;2.13;;;1.48;;
26908;SDS011;14477;51.038;4.588;2022-08-01T10:07:32;2.10;;;1.73;;
26908;SDS011;14477;51.038;4.588;2022-08-01T10:10:08;1.60;;;1.50;;
26908;SDS011;14477;51.038;4.588;2022-08-01T10:12:39;1.70;;;1.60;;
26908;SDS011;14477;51.038;4.588;2022-08-01T10:15:07;1.50;;;1.40;;
26908;SDS011;14477;51.038;4.588;2022-08-01T10:17:34;1.85;;;1.75;;
26908;SDS011;14477;51.038;4.588;2022-08-01T10:20:04;1.63;;;1.52;;
26908;SDS011;14477;51.038;4.588;2022-08-01T10:22:31;1.50;;;1.40;;
26908;SDS011;14477;51.038;4.588;2022-08-01T10:25:01;2.17;;;1.97;;
26908;SDS011;14477;51.038;4.588;2022-08-01T10:27:29;3.05;;;1.95;;
26908;SDS011;14477;51.038;4.588;2022-08-01T10:30:02;2.42;;;2.05;;
26908;SDS011;14477;51.038;4.588;2022-08-01T10:32:30;1.70;;;1.60;;
26908;SDS011;14477;51.038;4.588;2022-08-01T10:34:58;1.50;;;1.40;;
26908;SDS011;14477;51.038;4.588;2022-08-01T10:37:25;1.50;;;1.40;;
26908;SDS011;14477;51.038;4.588;2022-08-01T10:39:51;1.60;;;1.50;;
26908;SDS011;14477;51.038;4.588;2022-08-01T10:42:18;2.33;;;2.13;;
26908;SDS011;14477;51.038;4.588;2022-08-01T10:44:44;2.10;;;1.90;;
26908;SDS011;14477;51.038;4.588;2022-08-01T10:47:23;2.08;;;1.60;;
26908;SDS011;14477;51.038;4.588;2022-08-01T10:50:04;2.22;;;1.80;;
26908;SDS011;14477;51.038;4.588;2022-08-01T10:55:50;1.60;;;1.50;;
26908;SDS011;14477;51.038;4.588;2022-08-01T10:58:38;2.23;;;1.73;;
26908;SDS011;14477;51.038;4.588;2022-08-01T11:08:57;1.77;;;1.33;;
26908;SDS011;14477;51.038;4.588;2022-08-01T11:11:25;1.57;;;1.30;;
26908;SDS011;14477;51.038;4.588;2022-08-01T11:16:33;1.98;;;1.60;;
26908;SDS011;14477;51.038;4.588;2022-08-01T11:19:00;2.05;;;1.45;;
26908;SDS011;14477;51.038;4.588;2022-08-01T11:27:25;1.98;;;1.45;;
26908;SDS011;14477;51.038;4.588;2022-08-01T11:32:47;1.60;;;1.40;;
26908;SDS011;14477;51.038;4.588;2022-08-01T11:35:13;2.40;;;0.98;;
26908;SDS011;14477;51.038;4.588;2022-08-01T11:37:40;1.20;;;1.10;;
26908;SDS011;14477;51.038;4.588;2022-08-01T11:40:14;1.30;;;1.20;;
26908;SDS011;14477;51.038;4.588;2022-08-01T11:42:39;1.23;;;1.10;;
26908;SDS011;14477;51.038;4.588;2022-08-01T11:45:06;2.40;;;1.13;;
26908;SDS011;14477;51.038;4.588;2022-08-01T11:47:47;1.75;;;1.38;;
26908;SDS011;14477;51.038;4.588;2022-08-01T11:50:29;1.40;;;1.00;;
26908;SDS011;14477;51.038;4.588;2022-08-01T11:53:06;1.75;;;1.10;;
26908;SDS011;14477;51.038;4.588;2022-08-01T11:55:32;1.30;;;1.17;;
26908;SDS011;14477;51.038;4.588;2022-08-01T11:58:00;1.33;;;1.10;;
26908;SDS011;14477;51.038;4.588;2022-08-01T12:00:31;1.23;;;1.10;;
26908;SDS011;14477;51.038;4.588;2022-08-01T12:03:01;1.65;;;1.48;;
26908;SDS011;14477;51.038;4.588;2022-08-01T12:05:29;1.50;;;1.38;;
26908;SDS011;14477;51.038;4.588;2022-08-01T12:07:58;1.80;;;1.70;;
26908;SDS011;14477;51.038;4.588;2022-08-01T12:10:25;2.67;;;1.93;;
26908;SDS011;14477;51.038;4.588;2022-08-01T12:12:55;1.42;;;1.23;;
26908;SDS011;14477;51.038;4.588;2022-08-01T12:15:24;1.70;;;1.20;;
26908;SDS011;14477;51.038;4.588;2022-08-01T12:17:56;1.58;;;1.17;;
26908;SDS011;14477;51.038;4.588;2022-08-01T12:20:24;1.48;;;1.33;;
26908;SDS011;14477;51.038;4.588;2022-08-01T12:22:55;1.40;;;1.30;;
26908;SDS011;14477;51.038;4.588;2022-08-01T12:25:21;1.50;;;1.33;;
26908;SDS011;14477;51.038;4.588;2022-08-01T12:27:48;1.23;;;1.13;;
26908;SDS011;14477;51.038;4.588;2022-08-01T12:30:18;1.73;;;1.40;;
26908;SDS011;14477;51.038;4.588;2022-08-01T12:32:48;1.70;;;1.27;;
26908;SDS011;14477;51.038;4.588;2022-08-01T12:35:15;1.80;;;1.00;;
26908;SDS011;14477;51.038;4.588;2022-08-01T12:37:52;1.20;;;1.00;;
26908;SDS011;14477;51.038;4.588;2022-08-01T12:40:29;1.25;;;1.15;;
26908;SDS011;14477;51.038;4.588;2022-08-01T12:43:00;1.50;;;1.35;;
26908;SDS011;14477;51.038;4.588;2022-08-01T12:48:10;1.50;;;1.40;;
26908;SDS011;14477;51.038;4.588;2022-08-01T12:50:38;1.60;;;0.90;;
26908;SDS011;14477;51.038;4.588;2022-08-01T12:53:07;1.52;;;1.23;;
26908;SDS011;14477;51.038;4.588;2022-08-01T12:55:43;1.35;;;1.20;;
26908;SDS011;14477;51.038;4.588;2022-08-01T12:58:12;1.20;;;1.10;;
26908;SDS011;14477;51.038;4.588;2022-08-01T13:00:39;1.30;;;1.17;;
26908;SDS011;14477;51.038;4.588;2022-08-01T13:03:09;1.27;;;1.17;;
26908;SDS011;14477;51.038;4.588;2022-08-01T13:08:15;1.33;;;1.15;;
26908;SDS011;14477;51.038;4.588;2022-08-01T13:10:42;1.42;;;1.33;;
26908;SDS011;14477;51.038;4.588;2022-08-01T13:13:09;1.30;;;1.20;;
26908;SDS011;14477;51.038;4.588;2022-08-01T13:15:38;1.70;;;1.35;;
26908;SDS011;14477;51.038;4.588;2022-08-01T13:24:28;1.52;;;1.42;;
26908;SDS011;14477;51.038;4.588;2022-08-01T13:29:04;1.60;;;1.50;;
26908;SDS011;14477;51.038;4.588;2022-08-01T13:31:35;1.58;;;1.48;;
26908;SDS011;14477;51.038;4.588;2022-08-01T13:34:01;1.88;;;1.45;;
26908;SDS011;14477;51.038;4.588;2022-08-01T13:36:28;1.35;;;1.25;;
26908;SDS011;14477;51.038;4.588;2022-08-01T13:38:55;1.63;;;1.53;;
26908;SDS011;14477;51.038;4.588;2022-08-01T13:41:39;1.40;;;1.30;;
26908;SDS011;14477;51.038;4.588;2022-08-01T13:44:05;1.67;;;1.58;;
26908;SDS011;14477;51.038;4.588;2022-08-01T13:46:34;1.67;;;1.58;;
26908;SDS011;14477;51.038;4.588;2022-08-01T13:49:00;1.48;;;1.38;;
26908;SDS011;14477;51.038;4.588;2022-08-01T13:51:26;1.40;;;1.30;;
26908;SDS011;14477;51.038;4.588;2022-08-01T13:53:52;1.58;;;1.48;;
26908;SDS011;14477;51.038;4.588;2022-08-01T13:56:18;1.60;;;1.50;;
26908;SDS011;14477;51.038;4.588;2022-08-01T13:58:45;1.60;;;1.20;;
26908;SDS011;14477;51.038;4.588;2022-08-01T14:01:11;1.30;;;1.10;;
26908;SDS011;14477;51.038;4.588;2022-08-01T14:03:37;1.63;;;1.52;;
26908;SDS011;14477;51.038;4.588;2022-08-01T14:06:03;1.20;;;1.13;;
26908;SDS011;14477;51.038;4.588;2022-08-01T14:08:29;1.48;;;1.00;;
26908;SDS011;14477;51.038;4.588;2022-08-01T14:10:55;1.10;;;0.93;;
26908;SDS011;14477;51.038;4.588;2022-08-01T14:13:24;1.20;;;1.10;;
26908;SDS011;14477;51.038;4.588;2022-08-01T14:15:51;1.30;;;1.20;;
26908;SDS011;14477;51.038;4.588;2022-08-01T14:18:17;1.30;;;1.20;;
26908;SDS011;14477;51.038;4.588;2022-08-01T14:20:43;0.90;;;0.90;;
26908;SDS011;14477;51.038;4.588;2022-08-01T14:23:09;1.25;;;1.15;;
26908;SDS011;14477;51.038;4.588;2022-08-01T14:25:39;1.70;;;0.93;;
26908;SDS011;14477;51.038;4.588;2022-08-01T14:28:05;0.95;;;0.95;;
26908;SDS011;14477;51.038;4.588;2022-08-01T14:30:32;1.70;;;1.08;;
26908;SDS011;14477;51.038;4.588;2022-08-01T14:32:59;2.03;;;0.90;;
26908;SDS011;14477;51.038;4.588;2022-08-01T14:35:25;1.20;;;1.00;;
26908;SDS011;14477;51.038;4.588;2022-08-01T14:37:51;1.40;;;0.90;;
26908;SDS011;14477;51.038;4.588;2022-08-01T14:40:17;1.40;;;1.00;;
26908;SDS011;14477;51.038;4.588;2022-08-01T14:42:43;2.47;;;1.52;;
26908;SDS011;14477;51.038;4.588;2022-08-01T14:45:11;1.83;;;1.13;;
26908;SDS011;14477;51.038;4.588;2022-08-01T14:47:38;1.47;;;1.00;;
26908;SDS011;14477;51.038;4.588;2022-08-01T14:50:06;1.02;;;0.93;;
26908;SDS011;14477;51.038;4.588;2022-08-01T14:52:34;1.08;;;1.08;;
26908;SDS011;14477;51.038;4.588;2022-08-01T14:55:01;1.13;;;0.90;;
26908;SDS011;14477;51.038;4.588;2022-08-01T14:57:28;1.08;;;1.05;;
26908;SDS011;14477;51.038;4.588;2022-08-01T14:59:54;1.13;;;1.00;;
26908;SDS011;14477;51.038;4.588;2022-08-01T15:02:20;1.13;;;0.95;;
26908;SDS011;14477;51.038;4.588;2022-08-01T15:04:47;1.52;;;1.10;;
26908;SDS011;14477;51.038;4.588;2022-08-01T15:07:14;1.60;;;1.05;;
26908;SDS011;14477;51.038;4.588;2022-08-01T15:09:41;1.73;;;1.10;;
26908;SDS011;14477;51.038;4.588;2022-08-01T15:12:08;1.70;;;0.90;;
26908;SDS011;14477;51.038;4.588;2022-08-01T15:14:34;1.50;;;0.90;;
26908;SDS011;14477;51.038;4.588;2022-08-01T15:17:16;0.93;;;0.90;;
26908;SDS011;14477;51.038;4.588;2022-08-01T15:19:44;1.45;;;0.88;;
26908;SDS011;14477;51.038;4.588;2022-08-01T15:22:11;1.80;;;1.00;;
26908;SDS011;14477;51.038;4.588;2022-08-01T15:24:37;1.38;;;0.90;;
26908;SDS011;14477;51.038;4.588;2022-08-01T15:27:03;1.35;;;0.90;;
26908;SDS011;14477;51.038;4.588;2022-08-01T15:29:29;1.55;;;1.10;;
26908;SDS011;14477;51.038;4.588;2022-08-01T15:31:55;2.10;;;1.03;;
26908;SDS011;14477;51.038;4.588;2022-08-01T15:34:21;1.52;;;0.93;;
26908;SDS011;14477;51.038;4.588;2022-08-01T15:36:47;1.33;;;1.13;;
26908;SDS011;14477;51.038;4.588;2022-08-01T15:39:13;1.38;;;1.00;;
26908;SDS011;14477;51.038;4.588;2022-08-01T15:41:40;1.63;;;1.00;;
26908;SDS011;14477;51.038;4.588;2022-08-01T15:44:06;1.00;;;1.00;;
26908;SDS011;14477;51.038;4.588;2022-08-01T15:46:31;1.80;;;1.10;;
26908;SDS011;14477;51.038;4.588;2022-08-01T15:49:00;1.50;;;0.80;;
26908;SDS011;14477;51.038;4.588;2022-08-01T15:51:28;1.77;;;1.02;;